createdAt,value
2022-11-17T00:01:29.348Z,14.50
2022-11-17T00:03:57.431Z,11.87
2022-11-17T00:06:25.365Z,16.40
2022-11-17T00:08:54.171Z,13.13
2022-11-17T00:11:23.507Z,19.23
2022-11-17T00:14:08.787Z,16.93
2022-11-17T00:16:36.863Z,14.83
2022-11-17T00:19:22.141Z,20.50
2022-11-17T00:21:50.449Z,17.63
2022-11-17T00:24:18.402Z,12.13
2022-11-17T00:29:41.792Z,16.83
2022-11-17T00:32:30.734Z,23.47
2022-11-17T00:34:58.821Z,17.67
2022-11-17T00:37:28.674Z,19.33
2022-11-17T00:40:00.666Z,21.67
2022-11-17T00:42:29.236Z,20.00
2022-11-17T00:44:58.686Z,23.07
2022-11-17T00:47:26.677Z,23.93
2022-11-17T00:49:54.825Z,24.67
2022-11-17T00:52:22.973Z,25.33
2022-11-17T00:54:51.170Z,24.73
2022-11-17T00:57:19.139Z,27.80
2022-11-17T00:59:47.083Z,23.03
2022-11-17T01:02:16.404Z,30.97
2022-11-17T01:04:44.343Z,30.67
2022-11-17T01:07:12.372Z,29.37
2022-11-17T01:09:40.588Z,26.67
2022-11-17T01:12:08.658Z,23.30
2022-11-17T01:14:36.838Z,24.63
2022-11-17T01:17:04.901Z,27.30
2022-11-17T01:19:34.499Z,24.90
2022-11-17T01:22:02.469Z,27.30
2022-11-17T01:24:30.622Z,30.27
2022-11-17T01:26:58.552Z,24.67
2022-11-17T01:29:26.520Z,18.00
2022-11-17T01:31:54.734Z,27.77
2022-11-17T01:34:22.680Z,24.37
2022-11-17T01:37:09.778Z,27.47
2022-11-17T01:39:37.736Z,20.83
2022-11-17T01:42:12.861Z,25.77
2022-11-17T01:45:01.967Z,22.63
2022-11-17T01:47:38.959Z,32.77
2022-11-17T01:50:11.692Z,27.17
2022-11-17T01:52:42.955Z,30.63
2022-11-17T01:55:12.335Z,27.67
2022-11-17T01:57:46.246Z,25.40
2022-11-17T02:00:15.324Z,26.70
2022-11-17T02:02:44.831Z,22.10
2022-11-17T02:05:23.733Z,29.13
2022-11-17T02:07:55.877Z,29.67
2022-11-17T02:10:23.890Z,24.07
2022-11-17T02:12:53.378Z,23.10
2022-11-17T02:15:22.168Z,22.57
2022-11-17T02:17:52.429Z,29.93
2022-11-17T02:20:29.229Z,21.00
2022-11-17T02:23:19.780Z,21.00
2022-11-17T02:26:07.738Z,24.97
2022-11-17T02:28:43.421Z,23.37
2022-11-17T02:31:23.467Z,21.33
2022-11-17T02:33:59.064Z,22.77
2022-11-17T02:36:34.336Z,22.97
2022-11-17T02:39:11.075Z,18.90
2022-11-17T02:41:48.000Z,21.73
2022-11-17T02:44:25.749Z,27.10
2022-11-17T02:46:59.140Z,23.10
2022-11-17T02:49:30.879Z,23.03
2022-11-17T02:52:00.594Z,19.70
2022-11-17T02:54:31.458Z,18.50
2022-11-17T02:56:59.710Z,22.93
2022-11-17T02:59:32.441Z,26.37
2022-11-17T03:02:29.511Z,20.80
2022-11-17T03:05:10.662Z,20.73
2022-11-17T03:07:52.806Z,26.70
2022-11-17T03:10:24.664Z,20.77
2022-11-17T03:13:01.042Z,22.30
2022-11-17T03:15:42.537Z,28.63
2022-11-17T03:18:19.959Z,19.17
2022-11-17T03:20:59.067Z,27.13
2022-11-17T03:23:34.450Z,26.90
2022-11-17T03:26:06.645Z,27.20
2022-11-17T03:28:35.573Z,28.17
2022-11-17T03:31:09.371Z,31.70
2022-11-17T03:33:41.264Z,21.47
2022-11-17T03:36:13.541Z,27.87
2022-11-17T03:38:48.198Z,22.80
2022-11-17T03:41:19.048Z,23.53
2022-11-17T03:43:51.944Z,20.90
2022-11-17T03:46:23.980Z,20.83
2022-11-17T03:48:56.636Z,21.17
2022-11-17T03:51:27.873Z,24.30
2022-11-17T03:53:56.811Z,29.20
2022-11-17T03:56:35.683Z,27.57
2022-11-17T03:59:11.314Z,26.20
2022-11-17T04:01:41.227Z,27.40
2022-11-17T04:04:15.616Z,25.07
2022-11-17T04:06:43.751Z,19.63
2022-11-17T04:09:11.784Z,31.70
2022-11-17T04:11:57.074Z,29.63
2022-11-17T04:14:42.345Z,27.70
2022-11-17T04:17:11.833Z,30.87
2022-11-17T04:19:39.897Z,24.90
2022-11-17T04:22:07.859Z,33.87
2022-11-17T04:24:36.008Z,32.87
2022-11-17T04:27:21.692Z,31.23
2022-11-17T04:29:49.661Z,21.10
2022-11-17T04:32:18.937Z,30.97
2022-11-17T04:34:46.848Z,27.70
2022-11-17T04:37:18.356Z,26.10
2022-11-17T04:39:46.845Z,24.33
2022-11-17T04:42:14.120Z,35.63
2022-11-17T04:44:42.136Z,29.27
2022-11-17T04:47:10.064Z,26.97
2022-11-17T04:49:39.428Z,29.53
2022-11-17T04:52:07.580Z,27.63
2022-11-17T04:54:35.533Z,32.77
2022-11-17T04:57:03.663Z,29.07
2022-11-17T04:59:31.591Z,34.17
2022-11-17T05:02:05.313Z,35.27
2022-11-17T05:04:51.611Z,35.40
2022-11-17T05:07:20.988Z,35.40
2022-11-17T05:09:48.926Z,30.43
2022-11-17T05:12:34.792Z,32.30
2022-11-17T05:15:02.924Z,44.40
2022-11-17T05:17:29.820Z,32.70
2022-11-17T05:19:57.792Z,33.73
2022-11-17T05:22:44.806Z,30.70
2022-11-17T05:25:12.737Z,30.07
2022-11-17T05:27:40.887Z,38.77
2022-11-17T05:30:10.430Z,37.93
2022-11-17T05:32:38.579Z,34.27
2022-11-17T05:35:07.469Z,28.50
2022-11-17T05:37:36.785Z,34.63
2022-11-17T05:40:05.403Z,32.17
2022-11-17T05:42:34.266Z,32.80
2022-11-17T05:45:02.281Z,32.43
2022-11-17T05:47:30.184Z,30.93
2022-11-17T05:49:58.095Z,31.27
2022-11-17T05:52:26.244Z,35.57
2022-11-17T05:54:55.786Z,33.57
2022-11-17T05:57:28.265Z,37.67
2022-11-17T06:00:04.513Z,26.67
2022-11-17T06:02:38.113Z,30.20
2022-11-17T06:05:07.162Z,27.63
2022-11-17T06:07:36.803Z,27.60
2022-11-17T06:10:07.499Z,25.67
2022-11-17T06:12:35.571Z,28.13
2022-11-17T06:15:03.584Z,27.90
2022-11-17T06:17:36.714Z,34.97
2022-11-17T06:20:08.348Z,30.63
2022-11-17T06:22:37.030Z,26.70
2022-11-17T06:25:09.477Z,27.20
2022-11-17T06:27:40.192Z,25.33
2022-11-17T06:30:09.164Z,28.50
2022-11-17T06:32:39.940Z,32.50
2022-11-17T06:35:10.163Z,29.53
2022-11-17T06:37:38.153Z,32.30
2022-11-17T06:40:10.053Z,29.43
2022-11-17T06:42:58.001Z,24.30
2022-11-17T06:45:26.342Z,29.37
2022-11-17T06:47:55.136Z,25.27
2022-11-17T06:50:23.219Z,26.10
2022-11-17T06:52:51.375Z,21.83
2022-11-17T06:55:21.038Z,20.73
2022-11-17T06:57:53.159Z,23.60
2022-11-17T07:00:22.384Z,22.23
2022-11-17T07:02:50.523Z,24.53
2022-11-17T07:05:18.517Z,19.50
2022-11-17T07:07:46.562Z,27.33
2022-11-17T07:10:14.528Z,28.00
2022-11-17T07:12:43.766Z,21.17
2022-11-17T07:15:12.530Z,25.07
2022-11-17T07:17:40.563Z,25.33
2022-11-17T07:20:10.503Z,27.43
2022-11-17T07:22:38.765Z,26.67
2022-11-17T07:25:07.407Z,26.17
2022-11-17T07:27:35.373Z,25.23
2022-11-17T07:30:05.277Z,22.03
2022-11-17T07:32:34.343Z,28.27
2022-11-17T07:35:05.780Z,31.77
2022-11-17T07:37:34.377Z,19.80
2022-11-17T07:40:02.353Z,33.87
2022-11-17T07:42:30.297Z,21.50
2022-11-17T07:44:58.106Z,22.00
2022-11-17T07:47:27.903Z,25.23
2022-11-17T07:49:56.099Z,23.27
2022-11-17T07:52:23.922Z,24.40
2022-11-17T07:54:52.010Z,20.43
2022-11-17T07:57:21.138Z,26.40
2022-11-17T07:59:49.427Z,26.60
2022-11-17T08:02:17.389Z,21.73
2022-11-17T08:04:46.588Z,24.10
2022-11-17T08:07:14.795Z,21.00
2022-11-17T08:09:42.815Z,24.93
2022-11-17T08:12:10.943Z,24.07
2022-11-17T08:14:41.315Z,20.53
2022-11-17T08:17:09.598Z,24.87
2022-11-17T08:19:37.460Z,21.20
2022-11-17T08:22:06.927Z,22.53
2022-11-17T08:24:34.984Z,23.27
2022-11-17T08:27:03.286Z,24.63
2022-11-17T08:29:31.402Z,22.13
2022-11-17T08:31:59.324Z,20.70
2022-11-17T08:34:27.365Z,17.80
2022-11-17T08:36:55.223Z,21.90
2022-11-17T08:39:24.603Z,20.50
2022-11-17T08:41:52.975Z,21.93
2022-11-17T08:44:22.257Z,25.60
2022-11-17T08:46:50.206Z,22.27
2022-11-17T08:49:18.066Z,20.27
2022-11-17T08:51:45.895Z,16.17
2022-11-17T08:54:14.030Z,23.67
2022-11-17T08:56:44.666Z,20.73
2022-11-17T08:59:13.392Z,22.23
2022-11-17T09:01:41.941Z,18.27
2022-11-17T09:04:09.886Z,20.47
2022-11-17T09:06:37.912Z,17.63
2022-11-17T09:09:06.069Z,19.00
2022-11-17T09:11:34.183Z,16.17
2022-11-17T09:14:03.743Z,20.97
2022-11-17T09:16:31.646Z,17.53
2022-11-17T09:18:59.773Z,20.53
2022-11-17T09:21:27.855Z,19.77
2022-11-17T09:23:56.062Z,18.90
2022-11-17T09:26:24.166Z,20.13
2022-11-17T09:28:52.358Z,19.33
2022-11-17T09:31:23.408Z,20.33
2022-11-17T09:33:51.409Z,19.97
2022-11-17T09:36:19.444Z,19.83
2022-11-17T09:38:48.068Z,17.80
2022-11-17T09:41:26.287Z,21.17
2022-11-17T09:44:09.447Z,21.90
2022-11-17T09:46:52.331Z,19.67
2022-11-17T09:49:32.519Z,18.10
2022-11-17T09:52:08.421Z,21.20
2022-11-17T09:54:49.731Z,17.37
2022-11-17T09:57:26.004Z,16.13
2022-11-17T10:00:03.715Z,18.07
2022-11-17T10:02:33.493Z,17.20
2022-11-17T10:05:01.903Z,21.70
2022-11-17T10:07:33.182Z,25.23
2022-11-17T10:10:04.511Z,25.80
2022-11-17T10:12:39.979Z,27.50
2022-11-17T10:15:22.909Z,24.57
2022-11-17T10:17:53.499Z,17.83
2022-11-17T10:20:21.973Z,19.90
2022-11-17T10:22:53.033Z,23.23
2022-11-17T10:25:37.620Z,28.03
2022-11-17T10:28:07.123Z,30.40
2022-11-17T10:30:35.204Z,17.83
2022-11-17T10:33:05.127Z,25.60
2022-11-17T10:35:35.083Z,33.20
2022-11-17T10:38:06.955Z,24.88
2022-11-17T10:40:49.112Z,23.90
2022-11-17T10:43:27.171Z,24.10
2022-11-17T10:45:57.770Z,26.63
2022-11-17T10:48:29.914Z,29.15
2022-11-17T10:51:00.068Z,22.10
2022-11-17T10:53:43.485Z,40.42
2022-11-17T10:56:16.923Z,19.67
2022-11-17T10:58:59.438Z,22.75
2022-11-17T11:01:32.712Z,26.27
2022-11-17T11:04:02.686Z,21.05
2022-11-17T11:06:32.976Z,27.52
2022-11-17T11:09:04.500Z,24.77
2022-11-17T11:11:47.164Z,24.40
2022-11-17T11:14:21.123Z,25.85
2022-11-17T11:16:51.001Z,24.02
2022-11-17T11:19:21.872Z,25.75
2022-11-17T11:22:01.943Z,26.52
2022-11-17T11:24:40.331Z,31.65
2022-11-17T11:27:24.856Z,23.27
2022-11-17T11:30:02.707Z,18.38
2022-11-17T11:32:41.854Z,15.95
2022-11-17T11:35:42.141Z,24.05
2022-11-17T11:38:25.218Z,28.30
2022-11-17T11:41:06.418Z,22.10
2022-11-17T11:43:45.418Z,26.65
2022-11-17T11:46:18.973Z,15.23
2022-11-17T11:48:50.214Z,21.77
2022-11-17T11:51:21.473Z,19.77
2022-11-17T11:53:57.918Z,40.13
2022-11-17T11:56:32.978Z,92.30
2022-11-17T11:59:06.451Z,21.27
2022-11-17T12:01:43.752Z,26.13
2022-11-17T12:04:30.821Z,17.33
2022-11-17T12:07:07.403Z,18.50
2022-11-17T12:09:57.163Z,19.23
2022-11-17T12:12:31.519Z,20.35
2022-11-17T12:15:12.940Z,42.33
2022-11-17T12:17:59.103Z,19.75
2022-11-17T12:21:02.602Z,21.63
2022-11-17T12:23:42.587Z,18.75
2022-11-17T12:26:22.825Z,20.35
2022-11-17T12:28:50.807Z,17.45
2022-11-17T12:31:43.128Z,26.58
2022-11-17T12:34:22.586Z,16.27
2022-11-17T12:37:22.992Z,18.67
2022-11-17T12:40:02.884Z,19.38
2022-11-17T12:42:33.693Z,19.15
2022-11-17T12:45:12.596Z,14.18
2022-11-17T12:47:42.156Z,16.08
2022-11-17T12:50:39.800Z,16.88
2022-11-17T12:53:20.822Z,13.88
2022-11-17T12:56:02.566Z,84.15
2022-11-17T12:58:41.235Z,15.70
2022-11-17T13:01:18.173Z,15.82
2022-11-17T13:03:53.815Z,17.08
2022-11-17T13:06:36.769Z,22.17
2022-11-17T13:09:07.728Z,20.23
2022-11-17T13:11:36.563Z,18.83
2022-11-17T13:14:10.854Z,14.93
2022-11-17T13:16:45.536Z,19.95
2022-11-17T13:19:38.491Z,17.30
2022-11-17T13:22:14.906Z,17.77
2022-11-17T13:24:45.045Z,27.38
2022-11-17T13:27:24.313Z,30.48
2022-11-17T13:29:54.100Z,107.95
2022-11-17T13:32:28.377Z,30.90
2022-11-17T13:35:00.584Z,23.98
2022-11-17T13:37:30.114Z,18.27
2022-11-17T13:40:00.960Z,25.17
2022-11-17T13:42:32.307Z,20.63
2022-11-17T13:45:03.856Z,65.13
2022-11-17T13:47:47.541Z,125.97
2022-11-17T13:50:33.216Z,20.40
2022-11-17T13:53:03.837Z,20.83
2022-11-17T13:55:32.704Z,20.63
2022-11-17T13:58:03.136Z,20.67
2022-11-17T14:00:33.658Z,19.23
2022-11-17T14:03:03.387Z,14.43
2022-11-17T14:05:38.909Z,14.50
2022-11-17T14:08:27.176Z,20.10
2022-11-17T14:11:14.446Z,15.57
2022-11-17T14:13:45.399Z,14.55
2022-11-17T14:16:25.767Z,57.17
2022-11-17T14:19:00.192Z,26.35
2022-11-17T14:21:29.308Z,36.85
2022-11-17T14:24:06.428Z,18.52
2022-11-17T14:26:34.587Z,19.73
2022-11-17T14:29:03.293Z,26.50
2022-11-17T14:31:33.421Z,20.07
2022-11-17T14:34:01.682Z,32.97
2022-11-17T14:36:30.708Z,20.77
2022-11-17T14:38:59.309Z,22.13
2022-11-17T14:41:27.305Z,20.55
2022-11-17T14:43:55.421Z,21.57
2022-11-17T14:46:25.701Z,131.82
2022-11-17T14:48:56.326Z,47.43
2022-11-17T14:51:24.504Z,20.87
2022-11-17T14:53:52.677Z,24.60
2022-11-17T14:56:22.749Z,16.90
2022-11-17T14:58:55.494Z,12.50
2022-11-17T15:01:25.557Z,14.07
2022-11-17T15:03:55.670Z,12.00
2022-11-17T15:06:24.163Z,16.97
2022-11-17T15:08:55.246Z,17.60
2022-11-17T15:11:24.343Z,13.30
2022-11-17T15:13:52.439Z,12.43
2022-11-17T15:16:20.574Z,10.47
2022-11-17T15:18:49.411Z,11.27
2022-11-17T15:21:18.950Z,12.90
2022-11-17T15:23:46.898Z,11.93
2022-11-17T15:26:17.036Z,18.00
2022-11-17T15:28:45.112Z,17.53
2022-11-17T15:31:14.637Z,16.63
2022-11-17T15:33:44.059Z,13.53
2022-11-17T15:36:13.963Z,20.33
2022-11-17T15:38:43.335Z,14.60
2022-11-17T15:41:12.673Z,11.23
2022-11-17T15:43:42.066Z,12.07
2022-11-17T15:46:12.241Z,16.17
2022-11-17T15:48:43.025Z,11.77
2022-11-17T15:51:13.098Z,13.53
2022-11-17T15:53:41.976Z,14.20
2022-11-17T15:56:13.557Z,14.63
2022-11-17T15:58:43.273Z,13.53
2022-11-17T16:01:13.560Z,13.73
2022-11-17T16:03:43.067Z,17.53
2022-11-17T16:06:12.032Z,14.53
2022-11-17T16:08:40.679Z,12.27
2022-11-17T16:11:09.195Z,11.20
2022-11-17T16:13:38.620Z,13.30
2022-11-17T16:16:07.847Z,17.83
2022-11-17T16:18:38.524Z,16.37
2022-11-17T16:21:08.141Z,17.63
2022-11-17T16:23:40.298Z,13.13
2022-11-17T16:26:09.094Z,12.67
2022-11-17T16:28:38.858Z,13.83
2022-11-17T16:31:14.865Z,17.20
2022-11-17T16:33:48.251Z,12.73
2022-11-17T16:36:16.521Z,10.87
2022-11-17T16:38:59.686Z,14.87
2022-11-17T16:41:32.252Z,12.73
2022-11-17T16:44:02.237Z,13.27
2022-11-17T16:46:31.940Z,20.60
2022-11-17T16:49:03.688Z,15.60
2022-11-17T16:51:32.542Z,17.33
2022-11-17T16:54:02.185Z,13.53
2022-11-17T16:56:30.838Z,12.17
2022-11-17T16:58:59.808Z,13.63
2022-11-17T17:01:31.441Z,13.57
2022-11-17T17:04:01.435Z,12.83
2022-11-17T17:06:29.911Z,14.27
2022-11-17T17:08:59.939Z,19.87
2022-11-17T17:11:29.742Z,15.10
2022-11-17T17:13:57.861Z,17.83
2022-11-17T17:16:25.844Z,17.43
2022-11-17T17:18:59.254Z,12.90
2022-11-17T17:21:28.510Z,8.57
2022-11-17T17:23:56.770Z,6.93
2022-11-17T17:26:27.084Z,10.00
2022-11-17T17:28:57.515Z,9.60
2022-11-17T17:31:27.165Z,7.40
2022-11-17T17:33:56.914Z,7.77
2022-11-17T17:36:26.456Z,5.37
2022-11-17T17:38:56.581Z,9.10
2022-11-17T17:41:26.877Z,9.17
2022-11-17T17:43:59.230Z,8.03
2022-11-17T17:46:29.783Z,7.37
2022-11-17T17:48:59.786Z,7.17
2022-11-17T17:51:29.467Z,8.63
2022-11-17T17:54:01.096Z,8.83
2022-11-17T17:56:30.787Z,8.50
2022-11-17T17:58:59.508Z,9.00
2022-11-17T18:01:29.001Z,5.93
2022-11-17T18:04:04.335Z,8.57
2022-11-17T18:06:35.970Z,8.57
2022-11-17T18:09:04.653Z,7.07
2022-11-17T18:11:32.896Z,7.53
2022-11-17T18:14:01.300Z,4.67
2022-11-17T18:16:31.503Z,6.50
2022-11-17T18:19:02.429Z,5.47
2022-11-17T18:21:31.433Z,7.33
2022-11-17T18:24:01.458Z,6.53
2022-11-17T18:26:32.501Z,6.70
2022-11-17T18:29:03.649Z,6.80
2022-11-17T18:31:33.947Z,8.77
2022-11-17T18:34:05.634Z,7.10
2022-11-17T18:36:34.824Z,7.63
2022-11-17T18:39:03.550Z,8.67
2022-11-17T18:41:33.913Z,6.50
2022-11-17T18:44:02.590Z,6.67
2022-11-17T18:46:32.651Z,7.53
2022-11-17T18:49:01.274Z,6.03
2022-11-17T18:51:34.189Z,8.27
2022-11-17T18:54:03.012Z,9.03
2022-11-17T18:56:34.331Z,7.07
2022-11-17T18:59:02.658Z,9.10
2022-11-17T19:01:31.702Z,7.53
2022-11-17T19:04:01.851Z,6.30
2022-11-17T19:06:32.208Z,7.83
2022-11-17T19:09:01.344Z,6.37
2022-11-17T19:11:32.906Z,5.47
2022-11-17T19:14:03.005Z,8.17
2022-11-17T19:16:32.029Z,7.33
2022-11-17T19:19:00.895Z,5.97
2022-11-17T19:21:30.633Z,6.43
2022-11-17T19:24:04.355Z,4.47
2022-11-17T19:26:34.021Z,4.80
2022-11-17T19:29:03.891Z,5.90
2022-11-17T19:31:32.190Z,5.30
2022-11-17T19:34:01.470Z,6.97
2022-11-17T19:36:31.578Z,6.07
2022-11-17T19:39:02.467Z,4.60
2022-11-17T19:41:32.721Z,6.03
2022-11-17T19:44:04.060Z,5.97
2022-11-17T19:46:35.002Z,6.67
2022-11-17T19:49:04.926Z,5.30
2022-11-17T19:51:34.378Z,5.03
2022-11-17T19:54:05.916Z,3.80
2022-11-17T19:56:35.563Z,4.53
2022-11-17T19:59:04.730Z,4.07
2022-11-17T20:01:34.379Z,3.73
2022-11-17T20:04:03.020Z,5.87
2022-11-17T20:06:37.001Z,4.70
2022-11-17T20:09:10.021Z,5.53
2022-11-17T20:11:38.671Z,3.53
2022-11-17T20:14:06.619Z,3.57
2022-11-17T20:16:34.901Z,5.07
2022-11-17T20:19:04.101Z,3.30
2022-11-17T20:21:33.668Z,6.13
2022-11-17T20:24:02.208Z,3.27
2022-11-17T20:26:33.567Z,3.30
2022-11-17T20:29:02.252Z,2.33
2022-11-17T20:31:31.887Z,3.30
2022-11-17T20:34:01.469Z,4.17
2022-11-17T20:36:30.884Z,2.63
2022-11-17T20:39:00.791Z,3.70
2022-11-17T20:41:29.574Z,3.80
2022-11-17T20:44:01.870Z,3.43
2022-11-17T20:46:30.099Z,3.63
2022-11-17T20:48:58.290Z,2.77
2022-11-17T20:51:27.014Z,4.30
2022-11-17T20:53:55.171Z,2.70
2022-11-17T20:56:23.688Z,2.50
2022-11-17T20:58:51.712Z,2.37
2022-11-17T21:01:23.061Z,1.93
2022-11-17T21:03:51.269Z,3.53
2022-11-17T21:06:22.975Z,2.67
2022-11-17T21:08:51.953Z,2.27
2022-11-17T21:11:35.599Z,4.97
2022-11-17T21:14:04.443Z,3.90
2022-11-17T21:16:34.788Z,8.63
2022-11-17T21:19:02.744Z,3.20
2022-11-17T21:21:30.763Z,3.97
2022-11-17T21:23:58.860Z,3.10
2022-11-17T21:26:27.752Z,2.13
2022-11-17T21:28:56.033Z,3.17
2022-11-17T21:31:26.210Z,3.27
2022-11-17T21:33:56.879Z,1.60
2022-11-17T21:36:26.723Z,2.90
2022-11-17T21:38:55.369Z,3.73
2022-11-17T21:41:25.069Z,2.33
2022-11-17T21:43:55.333Z,3.80
2022-11-17T21:46:25.374Z,2.13
2022-11-17T21:48:56.290Z,2.00
2022-11-17T21:51:26.513Z,1.67
2022-11-17T21:53:55.283Z,4.17
2022-11-17T21:56:26.597Z,2.27
2022-11-17T21:58:56.209Z,3.03
2022-11-17T22:01:24.527Z,2.67
2022-11-17T22:03:52.947Z,3.23
2022-11-17T22:06:23.921Z,4.63
2022-11-17T22:08:52.234Z,3.67
2022-11-17T22:11:35.214Z,4.50
2022-11-17T22:14:05.619Z,3.53
2022-11-17T22:16:34.405Z,3.53
2022-11-17T22:19:03.001Z,2.50
2022-11-17T22:21:32.844Z,4.50
2022-11-17T22:24:01.122Z,3.80
2022-11-17T22:26:29.099Z,3.50
2022-11-17T22:28:57.377Z,2.17
2022-11-17T22:31:26.094Z,4.17
2022-11-17T22:33:54.612Z,3.17
2022-11-17T22:36:22.873Z,4.23
2022-11-17T22:38:53.902Z,4.20
2022-11-17T22:41:23.116Z,5.20
2022-11-17T22:43:51.771Z,6.53
2022-11-17T22:46:21.564Z,4.83
2022-11-17T22:48:49.755Z,3.73
2022-11-17T22:51:38.611Z,4.17
2022-11-17T22:54:09.037Z,4.90
2022-11-17T22:56:37.245Z,5.20
2022-11-17T22:59:05.427Z,5.43
2022-11-17T23:01:33.520Z,3.47
2022-11-17T23:04:01.442Z,3.77
2022-11-17T23:06:29.618Z,5.03
2022-11-17T23:08:58.582Z,2.57
2022-11-17T23:11:37.940Z,6.03
2022-11-17T23:14:07.583Z,3.90
2022-11-17T23:16:35.586Z,4.57
2022-11-17T23:19:03.586Z,6.30
2022-11-17T23:21:31.522Z,3.67
2022-11-17T23:23:59.627Z,2.77
2022-11-17T23:26:29.262Z,2.73
2022-11-17T23:28:58.058Z,3.30
2022-11-17T23:31:27.926Z,5.70
2022-11-17T23:33:56.320Z,3.57
2022-11-17T23:36:25.132Z,4.13
2022-11-17T23:38:53.725Z,4.37
2022-11-17T23:41:22.349Z,4.50
2022-11-17T23:43:54.033Z,2.37
2022-11-17T23:46:23.958Z,2.90
2022-11-17T23:48:52.316Z,4.03
2022-11-17T23:51:22.317Z,3.00
2022-11-17T23:53:50.482Z,3.57
2022-11-17T23:56:20.510Z,2.30
2022-11-17T23:58:48.941Z,2.47
